Time,TemperatureF,DewpointF,PressureIn,WindDirection,WindDirectionDegrees,WindSpeedMPH,WindSpeedGustMPH,Humidity,HourlyPrecipIn,Conditions,Clouds,dailyrainin,SoftwareType,DateUTC
2013-02-18 04:58:00,10.6,4.8,30.27,SSE,151,1.0,33.0,77,0.00,,,0.00,Weather View 32 v70,2013-02-18 09:58:00,
2013-02-18 05:03:00,10.1,4.6,30.27,NW,310,12.0,33.0,78,0.00,,,0.00,Weather View 32 v70,2013-02-18 10:03:00,
2013-02-18 07:30:00,12.2,6.4,30.36,NNW,328,10.0,24.0,77,0.00,,,0.00,Weather View 32 v70,2013-02-18 12:30:00,
2013-02-18 07:35:00,11.5,5.7,30.36,WNW,285,6.0,23.0,77,0.00,,,0.00,Weather View 32 v70,2013-02-18 12:35:00,
2013-02-18 07:38:00,13.1,7.0,30.37,West,260,4.0,24.0,76,0.00,,,0.00,Weather View 32 v70,2013-02-18 12:38:00,
2013-02-18 07:56:00,13.7,7.5,30.37,NW,325,4.0,29.0,76,0.00,,,0.00,Weather View 32 v70,2013-02-18 12:56:00,
2013-02-18 08:17:00,14.2,8.0,30.35,NW,307,4.0,29.0,76,0.00,,,0.00,Weather View 32 v70,2013-02-18 13:17:00,
2013-02-18 08:22:00,14.6,8.4,30.36,West,280,4.0,29.0,76,0.00,,,0.00,Weather View 32 v70,2013-02-18 13:22:00,
2013-02-18 08:30:00,14.9,8.7,30.37,North,356,4.0,29.0,76,0.00,,,0.00,Weather View 32 v70,2013-02-18 13:30:00,
2013-02-18 08:41:00,15.1,8.9,30.35,NNW,347,16.0,29.0,76,0.00,,,0.00,Weather View 32 v70,2013-02-18 13:41:00,
2013-02-18 08:58:00,15.3,9.1,30.36,North,11,7.0,22.0,76,0.00,,,0.00,Weather View 32 v70,2013-02-18 13:58:00,
2013-02-18 09:27:00,18.5,10.7,30.35,NNW,338,6.0,22.0,71,0.00,,,0.00,Weather View 32 v70,2013-02-18 14:27:00,
2013-02-18 09:35:00,18.4,11.8,30.35,West,267,5.0,22.0,75,0.00,,,0.00,Weather View 32 v70,2013-02-18 14:35:00,
2013-02-18 09:54:00,18.5,10.7,30.37,NW,326,8.0,22.0,71,0.00,,,0.00,Weather View 32 v70,2013-02-18 14:54:00,
2013-02-18 10:02:00,18.5,10.7,30.36,NNW,339,10.0,23.0,71,0.00,,,0.00,Weather View 32 v70,2013-02-18 15:02:00,
2013-02-18 10:13:00,19.3,11.4,30.36,WNW,300,4.0,23.0,71,0.00,,,0.00,Weather View 32 v70,2013-02-18 15:13:00,
2013-02-18 10:18:00,19.3,11.4,30.36,North,356,16.0,23.0,71,0.00,,,0.00,Weather View 32 v70,2013-02-18 15:18:00,
2013-02-18 12:28:00,25.4,17.3,30.33,WSW,250,3.0,19.0,71,0.00,,,0.00,Weather View 32 v70,2013-02-18 17:28:00,
2013-02-18 12:35:00,25.6,17.5,30.33,North,6,4.0,19.0,71,0.00,,,0.00,Weather View 32 v70,2013-02-18 17:35:00,
2013-02-18 12:40:00,25.2,16.8,30.33,North,349,7.0,19.0,70,0.00,,,0.00,Weather View 32 v70,2013-02-18 17:40:00,
2013-02-18 12:59:00,26.1,18.0,30.32,NW,323,3.0,19.0,71,0.00,,,0.00,Weather View 32 v70,2013-02-18 17:59:00,
2013-02-18 13:29:00,26.8,18.7,30.31,NNW,335,8.0,18.0,71,0.00,,,0.00,Weather View 32 v70,2013-02-18 18:29:00,
2013-02-18 13:40:00,27.2,19.0,30.32,WNW,293,3.0,18.0,71,0.00,,,0.00,Weather View 32 v70,2013-02-18 18:40:00,
2013-02-18 13:45:00,27.2,18.7,30.31,NW,310,2.0,18.0,70,0.00,,,0.00,Weather View 32 v70,2013-02-18 18:45:00,
2013-02-18 13:47:00,27.2,18.7,30.31,WSW,239,1.0,18.0,70,0.00,,,0.00,Weather View 32 v70,2013-02-18 18:47:00,
2013-02-18 13:55:00,27.2,19.0,30.31,WNW,299,6.0,18.0,71,0.00,,,0.00,Weather View 32 v70,2013-02-18 18:55:00,
2013-02-18 14:35:00,27.9,17.7,30.29,WSW,255,3.0,16.0,65,0.00,,,0.00,Weather View 32 v70,2013-02-18 19:35:00,
2013-02-18 14:40:00,28.4,18.5,30.30,NNW,337,4.0,16.0,66,0.00,,,0.00,Weather View 32 v70,2013-02-18 19:40:00,
2013-02-18 14:45:00,28.3,18.4,30.30,WNW,302,6.0,17.0,66,0.00,,,0.00,Weather View 32 v70,2013-02-18 19:45:00,
2013-02-18 15:05:00,28.4,18.1,30.30,NNE,23,3.0,17.0,65,0.00,,,0.00,Weather View 32 v70,2013-02-18 20:05:00,
2013-02-18 15:25:00,27.9,17.7,30.30,NW,311,7.0,17.0,65,0.00,,,0.00,Weather View 32 v70,2013-02-18 20:25:00,
2013-02-18 15:30:00,27.7,17.8,30.31,West,266,4.0,17.0,66,0.00,,,0.00,Weather View 32 v70,2013-02-18 20:30:00,
2013-02-18 16:35:00,27.0,18.9,30.33,WNW,286,2.0,16.0,71,0.00,,,0.00,Weather View 32 v70,2013-02-18 21:35:00,
2013-02-18 17:00:00,26.5,18.4,30.33,WNW,282,1.0,16.0,71,0.00,,,0.00,Weather View 32 v70,2013-02-18 22:00:00,
2013-02-18 17:30:00,25.9,18.1,30.32,WNW,295,3.0,13.0,72,0.00,,,0.00,Weather View 32 v70,2013-02-18 22:30:00,
2013-02-18 17:36:00,26.1,18.3,30.33,NNW,337,6.0,11.0,72,0.00,,,0.00,Weather View 32 v70,2013-02-18 22:36:00,
2013-02-18 18:00:00,25.6,17.8,30.34,WSW,238,2.0,9.0,72,0.00,,,0.00,Weather View 32 v70,2013-02-18 23:00:00,
2013-02-18 18:01:00,25.4,17.6,30.34,SSW,211,2.0,9.0,72,0.00,,,0.00,Weather View 32 v70,2013-02-18 23:01:00,
2013-02-18 18:02:00,25.6,17.8,30.34,WNW,292,3.0,9.0,72,0.00,,,0.00,Weather View 32 v70,2013-02-18 23:02:00,
2013-02-18 18:03:00,25.6,17.8,30.34,North,357,4.0,9.0,72,0.00,,,0.00,Weather View 32 v70,2013-02-18 23:03:00,
2013-02-18 18:21:00,25.4,17.6,30.35,NW,320,4.0,9.0,72,0.00,,,0.00,Weather View 32 v70,2013-02-18 23:21:00,
2013-02-18 20:40:00,22.1,14.1,30.36,NNW,335,3.0,4.0,71,0.00,,,0.00,Weather View 32 v70,2013-02-19 01:40:00,
2013-02-18 20:45:00,22.3,14.3,30.34,NNE,29,1.0,5.0,71,0.00,,,0.00,Weather View 32 v70,2013-02-19 01:45:00,
2013-02-18 20:50:00,22.0,14.0,30.34,NNW,343,3.0,5.0,71,0.00,,,0.00,Weather View 32 v70,2013-02-19 01:50:00,
2013-02-18 20:55:00,22.7,14.7,30.34,NW,306,2.0,5.0,71,0.00,,,0.00,Weather View 32 v70,2013-02-19 01:55:00,
2013-02-18 21:00:00,22.3,14.3,30.34,NNW,343,3.0,5.0,71,0.00,,,0.00,Weather View 32 v70,2013-02-19 02:00:00,
2013-02-18 21:05:00,22.5,14.5,30.34,NNE,16,2.0,5.0,71,0.00,,,0.00,Weather View 32 v70,2013-02-19 02:05:00,
2013-02-18 21:10:00,22.7,14.4,30.35,WNW,296,2.0,5.0,70,0.00,,,0.00,Weather View 32 v70,2013-02-19 02:10:00,
2013-02-18 21:23:00,22.1,14.1,30.34,SSE,165,2.0,5.0,71,0.00,,,0.00,Weather View 32 v70,2013-02-19 02:23:00,
2013-02-18 22:40:00,18.5,12.5,30.33,NNE,26,0.0,1.0,77,0.00,,,0.00,Weather View 32 v70,2013-02-19 03:40:00,
2013-02-18 22:45:00,18.5,12.8,30.33,WNW,297,0.0,1.0,78,0.00,,,0.00,Weather View 32 v70,2013-02-19 03:45:00,
2013-02-18 22:50:00,18.4,13.8,30.33,WSW,256,2.0,2.0,82,0.00,,,0.00,Weather View 32 v70,2013-02-19 03:50:00,
2013-02-18 22:55:00,18.2,13.1,30.34,WSW,244,2.0,4.0,80,0.00,,,0.00,Weather View 32 v70,2013-02-19 03:55:00,
2013-02-18 23:00:00,18.4,12.4,30.34,SW,222,2.0,4.0,77,0.00,,,0.00,Weather View 32 v70,2013-02-19 04:00:00,
2013-02-18 23:02:00,18.7,11.5,30.34,SSW,207,4.0,4.0,73,0.00,,,0.00,Weather View 32 v70,2013-02-19 04:02:00,
2013-02-18 23:05:00,19.3,11.4,30.34,West,262,1.0,4.0,71,0.00,,,0.00,Weather View 32 v70,2013-02-19 04:05:00,
2013-02-18 23:15:00,20.7,12.5,30.34,West,276,2.0,4.0,70,0.00,,,0.00,Weather View 32 v70,2013-02-19 04:15:00,
2013-02-18 23:22:00,21.4,13.1,30.34,South,170,1.0,4.0,70,0.00,,,0.00,Weather View 32 v70,2013-02-19 04:22:00,
2013-02-18 23:27:00,21.2,12.9,30.33,SSE,160,1.0,4.0,70,0.00,,,0.00,Weather View 32 v70,2013-02-19 04:27:00,